sensor_id;sensor_type;location;lat;lon;timestamp;temperature;humidity
16404;DHT22;8311;50.158;8.642;2023-03-01T00:02:41;18.20;39.80
16404;DHT22;8311;50.158;8.642;2023-03-01T00:05:35;18.20;39.80
16404;DHT22;8311;50.158;8.642;2023-03-01T00:08:30;18.20;39.80
16404;DHT22;8311;50.158;8.642;2023-03-01T00:11:26;18.10;39.70
16404;DHT22;8311;50.158;8.642;2023-03-01T00:14:20;18.20;40.40
16404;DHT22;8311;50.158;8.642;2023-03-01T00:17:14;18.20;39.80
16404;DHT22;8311;50.158;8.642;2023-03-01T00:20:08;18.20;39.80
16404;DHT22;8311;50.158;8.642;2023-03-01T00:23:02;18.10;39.80
16404;DHT22;8311;50.158;8.642;2023-03-01T00:25:56;18.10;39.80
16404;DHT22;8311;50.158;8.642;2023-03-01T00:28:50;18.10;39.80
16404;DHT22;8311;50.158;8.642;2023-03-01T00:31:44;18.20;39.80
16404;DHT22;8311;50.158;8.642;2023-03-01T00:34:37;18.10;39.90
16404;DHT22;8311;50.158;8.642;2023-03-01T00:37:30;18.20;39.90
16404;DHT22;8311;50.158;8.642;2023-03-01T00:40:23;18.20;39.90
16404;DHT22;8311;50.158;8.642;2023-03-01T00:43:18;18.10;39.90
16404;DHT22;8311;50.158;8.642;2023-03-01T00:46:13;18.10;39.90
16404;DHT22;8311;50.158;8.642;2023-03-01T00:49:07;18.10;39.90
16404;DHT22;8311;50.158;8.642;2023-03-01T00:51:59;18.10;39.90
16404;DHT22;8311;50.158;8.642;2023-03-01T00:54:53;18.10;39.90
16404;DHT22;8311;50.158;8.642;2023-03-01T00:57:46;18.10;39.90
16404;DHT22;8311;50.158;8.642;2023-03-01T01:00:40;18.10;39.90
16404;DHT22;8311;50.158;8.642;2023-03-01T01:03:34;18.10;39.90
16404;DHT22;8311;50.158;8.642;2023-03-01T01:06:28;18.10;40.00
16404;DHT22;8311;50.158;8.642;2023-03-01T01:09:22;18.10;40.00
16404;DHT22;8311;50.158;8.642;2023-03-01T01:12:15;18.10;40.00
16404;DHT22;8311;50.158;8.642;2023-03-01T01:15:09;18.10;40.00
16404;DHT22;8311;50.158;8.642;2023-03-01T01:18:06;18.10;40.00
16404;DHT22;8311;50.158;8.642;2023-03-01T01:21:04;18.10;40.00
16404;DHT22;8311;50.158;8.642;2023-03-01T01:23:58;18.10;40.00
16404;DHT22;8311;50.158;8.642;2023-03-01T01:26:52;18.10;40.10
16404;DHT22;8311;50.158;8.642;2023-03-01T01:29:45;18.10;40.00
16404;DHT22;8311;50.158;8.642;2023-03-01T01:32:38;18.10;40.00
16404;DHT22;8311;50.158;8.642;2023-03-01T01:35:32;18.10;40.00
16404;DHT22;8311;50.158;8.642;2023-03-01T01:38:27;18.10;40.10
16404;DHT22;8311;50.158;8.642;2023-03-01T01:41:21;18.10;40.10
16404;DHT22;8311;50.158;8.642;2023-03-01T01:44:18;18.10;40.10
16404;DHT22;8311;50.158;8.642;2023-03-01T01:47:14;18.10;40.10
16404;DHT22;8311;50.158;8.642;2023-03-01T01:50:14;18.10;40.10
16404;DHT22;8311;50.158;8.642;2023-03-01T01:53:14;18.10;40.10
16404;DHT22;8311;50.158;8.642;2023-03-01T01:56:10;18.10;40.10
16404;DHT22;8311;50.158;8.642;2023-03-01T01:59:05;18.10;40.10
16404;DHT22;8311;50.158;8.642;2023-03-01T02:02:00;18.10;40.10
16404;DHT22;8311;50.158;8.642;2023-03-01T02:05:01;18.10;40.10
16404;DHT22;8311;50.158;8.642;2023-03-01T02:07:57;18.10;40.10
16404;DHT22;8311;50.158;8.642;2023-03-01T02:10:53;18.10;40.10
16404;DHT22;8311;50.158;8.642;2023-03-01T02:13:48;18.10;40.10
16404;DHT22;8311;50.158;8.642;2023-03-01T02:16:41;18.10;40.20
16404;DHT22;8311;50.158;8.642;2023-03-01T02:19:43;18.10;40.10
16404;DHT22;8311;50.158;8.642;2023-03-01T02:22:40;18.10;40.20
16404;DHT22;8311;50.158;8.642;2023-03-01T02:25:41;18.10;40.20
16404;DHT22;8311;50.158;8.642;2023-03-01T02:28:42;18.10;40.20
16404;DHT22;8311;50.158;8.642;2023-03-01T02:31:36;18.10;40.20
16404;DHT22;8311;50.158;8.642;2023-03-01T02:34:35;18.10;40.90
16404;DHT22;8311;50.158;8.642;2023-03-01T02:37:29;18.10;40.20
16404;DHT22;8311;50.158;8.642;2023-03-01T02:40:23;18.10;40.20
16404;DHT22;8311;50.158;8.642;2023-03-01T02:43:19;18.10;40.20
16404;DHT22;8311;50.158;8.642;2023-03-01T02:46:17;18.10;40.20
16404;DHT22;8311;50.158;8.642;2023-03-01T02:49:20;18.10;40.30
16404;DHT22;8311;50.158;8.642;2023-03-01T02:52:28;18.10;40.30
16404;DHT22;8311;50.158;8.642;2023-03-01T02:55:23;18.10;40.30
16404;DHT22;8311;50.158;8.642;2023-03-01T02:58:17;18.10;40.20
16404;DHT22;8311;50.158;8.642;2023-03-01T03:01:10;18.10;40.20
16404;DHT22;8311;50.158;8.642;2023-03-01T03:04:06;18.10;40.30
16404;DHT22;8311;50.158;8.642;2023-03-01T03:07:00;18.10;40.30
16404;DHT22;8311;50.158;8.642;2023-03-01T03:09:53;18.10;40.30
16404;DHT22;8311;50.158;8.642;2023-03-01T03:12:49;18.10;40.30
16404;DHT22;8311;50.158;8.642;2023-03-01T03:15:43;18.10;40.30
16404;DHT22;8311;50.158;8.642;2023-03-01T03:18:37;18.10;40.30
16404;DHT22;8311;50.158;8.642;2023-03-01T03:21:31;18.10;40.30
16404;DHT22;8311;50.158;8.642;2023-03-01T03:24:25;18.10;40.30
16404;DHT22;8311;50.158;8.642;2023-03-01T03:27:19;18.10;40.30
16404;DHT22;8311;50.158;8.642;2023-03-01T03:30:15;18.10;40.30
16404;DHT22;8311;50.158;8.642;2023-03-01T03:33:09;18.10;40.40
16404;DHT22;8311;50.158;8.642;2023-03-01T03:36:05;18.10;40.30
16404;DHT22;8311;50.158;8.642;2023-03-01T03:39:00;18.10;40.40
16404;DHT22;8311;50.158;8.642;2023-03-01T03:41:53;18.10;40.40
16404;DHT22;8311;50.158;8.642;2023-03-01T03:44:47;18.10;40.40
16404;DHT22;8311;50.158;8.642;2023-03-01T03:47:40;18.10;40.40
16404;DHT22;8311;50.158;8.642;2023-03-01T03:50:34;18.10;40.40
16404;DHT22;8311;50.158;8.642;2023-03-01T03:53:29;18.00;40.40
16404;DHT22;8311;50.158;8.642;2023-03-01T03:56:23;18.10;40.40
16404;DHT22;8311;50.158;8.642;2023-03-01T03:59:19;18.10;40.40
16404;DHT22;8311;50.158;8.642;2023-03-01T04:02:12;18.00;40.40
16404;DHT22;8311;50.158;8.642;2023-03-01T04:05:16;18.10;40.40
16404;DHT22;8311;50.158;8.642;2023-03-01T04:08:10;18.10;40.40
16404;DHT22;8311;50.158;8.642;2023-03-01T04:11:04;18.10;40.50
16404;DHT22;8311;50.158;8.642;2023-03-01T04:14:13;18.00;40.40
16404;DHT22;8311;50.158;8.642;2023-03-01T04:17:06;18.00;40.40
16404;DHT22;8311;50.158;8.642;2023-03-01T04:19:59;18.00;40.40
16404;DHT22;8311;50.158;8.642;2023-03-01T04:22:59;18.00;40.40
16404;DHT22;8311;50.158;8.642;2023-03-01T04:26:00;18.00;40.40
16404;DHT22;8311;50.158;8.642;2023-03-01T04:28:53;18.00;40.40
16404;DHT22;8311;50.158;8.642;2023-03-01T04:31:49;18.00;40.40
16404;DHT22;8311;50.158;8.642;2023-03-01T04:34:42;18.00;40.40
16404;DHT22;8311;50.158;8.642;2023-03-01T04:37:35;18.00;40.40
16404;DHT22;8311;50.158;8.642;2023-03-01T04:40:28;18.00;40.50
16404;DHT22;8311;50.158;8.642;2023-03-01T04:43:21;18.00;40.40
16404;DHT22;8311;50.158;8.642;2023-03-01T04:46:16;18.00;40.50
16404;DHT22;8311;50.158;8.642;2023-03-01T04:49:12;18.00;40.50
16404;DHT22;8311;50.158;8.642;2023-03-01T04:52:06;18.00;40.50
16404;DHT22;8311;50.158;8.642;2023-03-01T04:54:59;18.00;40.50
16404;DHT22;8311;50.158;8.642;2023-03-01T04:57:53;18.00;40.50
16404;DHT22;8311;50.158;8.642;2023-03-01T05:00:46;18.00;40.50
16404;DHT22;8311;50.158;8.642;2023-03-01T05:03:39;18.00;40.50
16404;DHT22;8311;50.158;8.642;2023-03-01T05:06:35;18.00;40.50
16404;DHT22;8311;50.158;8.642;2023-03-01T05:09:28;18.00;40.50
16404;DHT22;8311;50.158;8.642;2023-03-01T05:12:21;18.00;41.10
16404;DHT22;8311;50.158;8.642;2023-03-01T05:15:14;18.00;40.50
16404;DHT22;8311;50.158;8.642;2023-03-01T05:18:07;18.00;40.50
16404;DHT22;8311;50.158;8.642;2023-03-01T05:21:04;18.00;40.50
16404;DHT22;8311;50.158;8.642;2023-03-01T05:23:59;18.00;40.50
16404;DHT22;8311;50.158;8.642;2023-03-01T05:26:53;18.00;40.50
16404;DHT22;8311;50.158;8.642;2023-03-01T05:29:47;18.00;40.60
16404;DHT22;8311;50.158;8.642;2023-03-01T05:32:41;18.00;40.60
16404;DHT22;8311;50.158;8.642;2023-03-01T05:35:36;18.00;40.60
16404;DHT22;8311;50.158;8.642;2023-03-01T05:38:29;18.00;40.50
16404;DHT22;8311;50.158;8.642;2023-03-01T05:41:24;18.00;40.50
16404;DHT22;8311;50.158;8.642;2023-03-01T05:44:17;18.00;40.60
16404;DHT22;8311;50.158;8.642;2023-03-01T05:47:11;18.00;40.50
16404;DHT22;8311;50.158;8.642;2023-03-01T05:50:06;18.00;40.60
16404;DHT22;8311;50.158;8.642;2023-03-01T05:53:01;18.00;40.60
16404;DHT22;8311;50.158;8.642;2023-03-01T05:55:54;18.00;40.60
16404;DHT22;8311;50.158;8.642;2023-03-01T05:58:49;18.00;40.60
16404;DHT22;8311;50.158;8.642;2023-03-01T06:01:42;18.00;40.60
16404;DHT22;8311;50.158;8.642;2023-03-01T06:04:35;18.00;40.60
16404;DHT22;8311;50.158;8.642;2023-03-01T06:07:29;18.00;40.60
16404;DHT22;8311;50.158;8.642;2023-03-01T06:10:22;18.00;40.60
16404;DHT22;8311;50.158;8.642;2023-03-01T06:13:15;18.00;40.60
16404;DHT22;8311;50.158;8.642;2023-03-01T06:16:11;18.00;40.60
16404;DHT22;8311;50.158;8.642;2023-03-01T06:19:04;18.00;40.60
16404;DHT22;8311;50.158;8.642;2023-03-01T06:21:57;18.00;40.60
16404;DHT22;8311;50.158;8.642;2023-03-01T06:24:50;18.00;40.60
16404;DHT22;8311;50.158;8.642;2023-03-01T06:27:43;18.00;41.30
16404;DHT22;8311;50.158;8.642;2023-03-01T06:30:37;18.00;40.60
16404;DHT22;8311;50.158;8.642;2023-03-01T06:33:32;18.00;40.60
16404;DHT22;8311;50.158;8.642;2023-03-01T06:36:25;18.00;40.60
16404;DHT22;8311;50.158;8.642;2023-03-01T06:39:18;17.90;40.60
16404;DHT22;8311;50.158;8.642;2023-03-01T06:42:11;17.90;40.60
16404;DHT22;8311;50.158;8.642;2023-03-01T06:45:05;17.90;40.60
16404;DHT22;8311;50.158;8.642;2023-03-01T06:48:03;18.00;40.70
16404;DHT22;8311;50.158;8.642;2023-03-01T06:50:59;18.00;40.70
16404;DHT22;8311;50.158;8.642;2023-03-01T06:53:53;18.00;40.70
16404;DHT22;8311;50.158;8.642;2023-03-01T06:56:46;18.00;40.70
16404;DHT22;8311;50.158;8.642;2023-03-01T06:59:40;17.90;40.60
16404;DHT22;8311;50.158;8.642;2023-03-01T07:02:33;17.90;40.60
16404;DHT22;8311;50.158;8.642;2023-03-01T07:05:26;17.90;40.60
16404;DHT22;8311;50.158;8.642;2023-03-01T07:08:21;17.90;40.60
16404;DHT22;8311;50.158;8.642;2023-03-01T07:11:14;17.90;40.60
16404;DHT22;8311;50.158;8.642;2023-03-01T07:14:07;17.90;41.00
16404;DHT22;8311;50.158;8.642;2023-03-01T07:17:01;17.90;36.40
16404;DHT22;8311;50.158;8.642;2023-03-01T07:19:54;17.80;33.40
16404;DHT22;8311;50.158;8.642;2023-03-01T07:22:47;17.80;35.40
16404;DHT22;8311;50.158;8.642;2023-03-01T07:25:42;18.00;35.60
16404;DHT22;8311;50.158;8.642;2023-03-01T07:28:35;18.10;35.60
16404;DHT22;8311;50.158;8.642;2023-03-01T07:31:31;18.20;36.70
16404;DHT22;8311;50.158;8.642;2023-03-01T07:34:24;18.20;36.40
16404;DHT22;8311;50.158;8.642;2023-03-01T07:37:18;18.30;36.80
16404;DHT22;8311;50.158;8.642;2023-03-01T07:40:13;18.40;37.00
16404;DHT22;8311;50.158;8.642;2023-03-01T07:43:07;18.40;37.10
16404;DHT22;8311;50.158;8.642;2023-03-01T07:46:02;18.50;37.50
16404;DHT22;8311;50.158;8.642;2023-03-01T07:48:55;18.50;37.70
16404;DHT22;8311;50.158;8.642;2023-03-01T07:51:49;18.60;37.70
16404;DHT22;8311;50.158;8.642;2023-03-01T07:54:43;18.70;37.80
16404;DHT22;8311;50.158;8.642;2023-03-01T07:57:37;18.70;37.90
16404;DHT22;8311;50.158;8.642;2023-03-01T08:00:32;18.80;38.00
16404;DHT22;8311;50.158;8.642;2023-03-01T08:03:25;18.80;37.90
16404;DHT22;8311;50.158;8.642;2023-03-01T08:06:18;18.80;37.90
16404;DHT22;8311;50.158;8.642;2023-03-01T08:09:11;18.80;37.90
16404;DHT22;8311;50.158;8.642;2023-03-01T08:12:05;18.80;38.00
16404;DHT22;8311;50.158;8.642;2023-03-01T08:14:59;18.80;38.00
16404;DHT22;8311;50.158;8.642;2023-03-01T08:17:54;18.80;38.10
16404;DHT22;8311;50.158;8.642;2023-03-01T08:20:47;18.90;38.30
16404;DHT22;8311;50.158;8.642;2023-03-01T08:23:41;18.80;38.50
16404;DHT22;8311;50.158;8.642;2023-03-01T08:26:34;18.80;38.70
16404;DHT22;8311;50.158;8.642;2023-03-01T08:29:28;18.90;38.90
16404;DHT22;8311;50.158;8.642;2023-03-01T08:32:21;18.90;39.10
16404;DHT22;8311;50.158;8.642;2023-03-01T08:35:16;18.90;39.20
16404;DHT22;8311;50.158;8.642;2023-03-01T08:38:09;19.00;39.30
16404;DHT22;8311;50.158;8.642;2023-03-01T08:41:03;19.00;39.30
16404;DHT22;8311;50.158;8.642;2023-03-01T08:43:57;19.00;39.30
16404;DHT22;8311;50.158;8.642;2023-03-01T08:46:51;19.10;39.40
16404;DHT22;8311;50.158;8.642;2023-03-01T08:49:46;19.10;39.30
16404;DHT22;8311;50.158;8.642;2023-03-01T08:52:41;19.20;39.40
16404;DHT22;8311;50.158;8.642;2023-03-01T08:55:34;19.20;39.40
16404;DHT22;8311;50.158;8.642;2023-03-01T08:58:28;19.30;39.50
16404;DHT22;8311;50.158;8.642;2023-03-01T09:01:21;19.30;39.50
16404;DHT22;8311;50.158;8.642;2023-03-01T09:04:15;19.30;39.50
16404;DHT22;8311;50.158;8.642;2023-03-01T09:07:09;19.40;39.40
16404;DHT22;8311;50.158;8.642;2023-03-01T09:10:05;19.40;39.40
16404;DHT22;8311;50.158;8.642;2023-03-01T09:12:58;19.50;39.40
16404;DHT22;8311;50.158;8.642;2023-03-01T09:15:51;19.50;39.40
16404;DHT22;8311;50.158;8.642;2023-03-01T09:18:44;19.50;39.40
16404;DHT22;8311;50.158;8.642;2023-03-01T09:21:38;19.60;39.40
16404;DHT22;8311;50.158;8.642;2023-03-01T09:24:32;19.60;39.30
16404;DHT22;8311;50.158;8.642;2023-03-01T09:27:27;19.70;39.30
16404;DHT22;8311;50.158;8.642;2023-03-01T09:30:21;19.70;39.40
16404;DHT22;8311;50.158;8.642;2023-03-01T09:33:14;19.70;39.40
16404;DHT22;8311;50.158;8.642;2023-03-01T09:36:10;19.80;39.40
16404;DHT22;8311;50.158;8.642;2023-03-01T09:39:04;19.80;39.30
16404;DHT22;8311;50.158;8.642;2023-03-01T09:41:59;19.80;39.30
16404;DHT22;8311;50.158;8.642;2023-03-01T09:44:59;19.90;39.40
16404;DHT22;8311;50.158;8.642;2023-03-01T09:47:54;19.90;39.30
16404;DHT22;8311;50.158;8.642;2023-03-01T09:50:49;20.00;39.30
16404;DHT22;8311;50.158;8.642;2023-03-01T09:53:42;20.00;39.30
16404;DHT22;8311;50.158;8.642;2023-03-01T09:56:39;20.00;39.30
16404;DHT22;8311;50.158;8.642;2023-03-01T09:59:44;20.10;39.30
16404;DHT22;8311;50.158;8.642;2023-03-01T10:02:46;20.10;39.30
16404;DHT22;8311;50.158;8.642;2023-03-01T10:05:47;20.10;39.30
16404;DHT22;8311;50.158;8.642;2023-03-01T10:08:47;20.10;39.30
16404;DHT22;8311;50.158;8.642;2023-03-01T10:11:47;20.20;39.30
16404;DHT22;8311;50.158;8.642;2023-03-01T10:14:48;20.20;39.30
16404;DHT22;8311;50.158;8.642;2023-03-01T10:17:50;20.20;39.30
16404;DHT22;8311;50.158;8.642;2023-03-01T10:20:47;20.20;39.20
16404;DHT22;8311;50.158;8.642;2023-03-01T10:23:44;20.20;39.10
16404;DHT22;8311;50.158;8.642;2023-03-01T10:26:44;20.30;39.20
16404;DHT22;8311;50.158;8.642;2023-03-01T10:29:45;20.30;39.20
16404;DHT22;8311;50.158;8.642;2023-03-01T10:32:39;20.40;39.20
16404;DHT22;8311;50.158;8.642;2023-03-01T10:35:34;20.40;39.10
16404;DHT22;8311;50.158;8.642;2023-03-01T10:38:31;20.40;39.10
16404;DHT22;8311;50.158;8.642;2023-03-01T10:41:53;20.40;39.20
16404;DHT22;8311;50.158;8.642;2023-03-01T10:44:48;20.40;39.10
16404;DHT22;8311;50.158;8.642;2023-03-01T10:47:41;20.50;39.10
16404;DHT22;8311;50.158;8.642;2023-03-01T10:50:37;20.50;39.10
16404;DHT22;8311;50.158;8.642;2023-03-01T10:53:35;20.50;39.10
16404;DHT22;8311;50.158;8.642;2023-03-01T10:56:28;20.50;39.00
16404;DHT22;8311;50.158;8.642;2023-03-01T10:59:28;20.60;39.00
16404;DHT22;8311;50.158;8.642;2023-03-01T11:02:25;20.60;39.00
16404;DHT22;8311;50.158;8.642;2023-03-01T11:05:23;20.60;39.00
16404;DHT22;8311;50.158;8.642;2023-03-01T11:08:35;20.60;39.00
16404;DHT22;8311;50.158;8.642;2023-03-01T11:11:32;20.60;38.90
16404;DHT22;8311;50.158;8.642;2023-03-01T11:14:28;20.70;39.10
16404;DHT22;8311;50.158;8.642;2023-03-01T11:17:27;20.70;38.90
16404;DHT22;8311;50.158;8.642;2023-03-01T11:20:29;20.80;38.80
16404;DHT22;8311;50.158;8.642;2023-03-01T11:23:24;20.80;38.70
16404;DHT22;8311;50.158;8.642;2023-03-01T11:26:21;20.90;38.70
16404;DHT22;8311;50.158;8.642;2023-03-01T11:29:26;20.90;38.70
16404;DHT22;8311;50.158;8.642;2023-03-01T11:32:36;20.90;38.60
16404;DHT22;8311;50.158;8.642;2023-03-01T11:35:35;20.90;38.60
16404;DHT22;8311;50.158;8.642;2023-03-01T11:38:34;21.00;38.60
16404;DHT22;8311;50.158;8.642;2023-03-01T11:41:31;21.00;38.60
16404;DHT22;8311;50.158;8.642;2023-03-01T11:44:28;21.00;38.50
16404;DHT22;8311;50.158;8.642;2023-03-01T11:47:32;21.00;38.50
16404;DHT22;8311;50.158;8.642;2023-03-01T11:50:38;21.10;38.30
16404;DHT22;8311;50.158;8.642;2023-03-01T11:53:48;21.10;38.30
16404;DHT22;8311;50.158;8.642;2023-03-01T11:56:48;21.20;38.30
16404;DHT22;8311;50.158;8.642;2023-03-01T11:59:59;21.20;38.20
16404;DHT22;8311;50.158;8.642;2023-03-01T12:03:21;21.20;38.10
16404;DHT22;8311;50.158;8.642;2023-03-01T12:06:55;21.30;38.10
16404;DHT22;8311;50.158;8.642;2023-03-01T12:10:05;21.30;38.00
16404;DHT22;8311;50.158;8.642;2023-03-01T12:13:32;21.40;37.90
16404;DHT22;8311;50.158;8.642;2023-03-01T12:16:50;21.40;37.90
16404;DHT22;8311;50.158;8.642;2023-03-01T12:20:06;21.40;37.80
16404;DHT22;8311;50.158;8.642;2023-03-01T12:23:25;21.40;37.90
16404;DHT22;8311;50.158;8.642;2023-03-01T12:26:27;21.40;37.70
16404;DHT22;8311;50.158;8.642;2023-03-01T12:29:26;21.50;37.80
16404;DHT22;8311;50.158;8.642;2023-03-01T12:32:33;21.40;37.80
16404;DHT22;8311;50.158;8.642;2023-03-01T12:35:47;21.40;37.60
16404;DHT22;8311;50.158;8.642;2023-03-01T12:38:49;21.40;37.60
16404;DHT22;8311;50.158;8.642;2023-03-01T12:41:48;21.40;37.60
16404;DHT22;8311;50.158;8.642;2023-03-01T12:44:55;21.40;37.50
16404;DHT22;8311;50.158;8.642;2023-03-01T12:48:07;21.50;37.50
16404;DHT22;8311;50.158;8.642;2023-03-01T12:51:07;21.50;37.60
16404;DHT22;8311;50.158;8.642;2023-03-01T12:54:11;21.50;37.50
16404;DHT22;8311;50.158;8.642;2023-03-01T12:57:14;21.50;37.60
16404;DHT22;8311;50.158;8.642;2023-03-01T13:00:22;21.50;37.50
16404;DHT22;8311;50.158;8.642;2023-03-01T13:07:29;21.60;37.50
16404;DHT22;8311;50.158;8.642;2023-03-01T13:10:31;21.50;37.30
16404;DHT22;8311;50.158;8.642;2023-03-01T13:13:27;21.50;37.30
16404;DHT22;8311;50.158;8.642;2023-03-01T13:16:39;21.60;37.30
16404;DHT22;8311;50.158;8.642;2023-03-01T13:19:34;21.50;37.20
16404;DHT22;8311;50.158;8.642;2023-03-01T13:22:33;21.50;37.10
16404;DHT22;8311;50.158;8.642;2023-03-01T13:26:02;21.50;37.10
16404;DHT22;8311;50.158;8.642;2023-03-01T13:28:56;21.50;37.20
16404;DHT22;8311;50.158;8.642;2023-03-01T13:32:02;21.40;37.30
16404;DHT22;8311;50.158;8.642;2023-03-01T13:34:58;21.40;37.40
16404;DHT22;8311;50.158;8.642;2023-03-01T13:37:51;21.40;37.50
16404;DHT22;8311;50.158;8.642;2023-03-01T13:40:59;21.40;37.60
16404;DHT22;8311;50.158;8.642;2023-03-01T13:43:53;21.30;37.70
16404;DHT22;8311;50.158;8.642;2023-03-01T13:46:47;21.30;37.80
16404;DHT22;8311;50.158;8.642;2023-03-01T13:49:46;21.20;37.80
16404;DHT22;8311;50.158;8.642;2023-03-01T13:52:42;21.20;37.90
16404;DHT22;8311;50.158;8.642;2023-03-01T13:55:40;21.10;37.90
16404;DHT22;8311;50.158;8.642;2023-03-01T13:58:46;21.10;38.00
16404;DHT22;8311;50.158;8.642;2023-03-01T14:01:41;21.10;38.00
16404;DHT22;8311;50.158;8.642;2023-03-01T14:04:34;21.00;38.00
16404;DHT22;8311;50.158;8.642;2023-03-01T14:07:30;21.00;38.20
16404;DHT22;8311;50.158;8.642;2023-03-01T14:10:26;21.00;38.20
16404;DHT22;8311;50.158;8.642;2023-03-01T14:13:34;21.00;38.20
16404;DHT22;8311;50.158;8.642;2023-03-01T14:16:35;20.90;38.20
16404;DHT22;8311;50.158;8.642;2023-03-01T14:19:33;20.90;38.20
16404;DHT22;8311;50.158;8.642;2023-03-01T14:22:28;20.90;38.30
16404;DHT22;8311;50.158;8.642;2023-03-01T14:25:26;20.80;38.30
16404;DHT22;8311;50.158;8.642;2023-03-01T14:28:23;20.80;38.40
16404;DHT22;8311;50.158;8.642;2023-03-01T14:31:34;20.80;38.30
16404;DHT22;8311;50.158;8.642;2023-03-01T14:34:44;20.80;38.40
16404;DHT22;8311;50.158;8.642;2023-03-01T14:37:40;20.70;38.50
16404;DHT22;8311;50.158;8.642;2023-03-01T14:40:36;20.70;38.50
16404;DHT22;8311;50.158;8.642;2023-03-01T14:43:30;20.70;38.80
16404;DHT22;8311;50.158;8.642;2023-03-01T14:46:26;20.70;39.00
16404;DHT22;8311;50.158;8.642;2023-03-01T14:49:25;20.60;38.90
16404;DHT22;8311;50.158;8.642;2023-03-01T14:52:21;20.60;38.90
16404;DHT22;8311;50.158;8.642;2023-03-01T14:55:18;20.60;38.70
16404;DHT22;8311;50.158;8.642;2023-03-01T14:58:14;20.50;38.60
16404;DHT22;8311;50.158;8.642;2023-03-01T15:01:14;20.50;38.20
16404;DHT22;8311;50.158;8.642;2023-03-01T15:04:12;20.40;38.30
16404;DHT22;8311;50.158;8.642;2023-03-01T15:07:12;20.40;38.10
16404;DHT22;8311;50.158;8.642;2023-03-01T15:10:12;20.40;38.20
16404;DHT22;8311;50.158;8.642;2023-03-01T15:13:12;20.40;38.20
16404;DHT22;8311;50.158;8.642;2023-03-01T15:16:08;20.40;38.20
16404;DHT22;8311;50.158;8.642;2023-03-01T15:19:04;20.40;38.20
16404;DHT22;8311;50.158;8.642;2023-03-01T15:21:58;20.40;38.20
16404;DHT22;8311;50.158;8.642;2023-03-01T15:24:51;20.30;38.20
16404;DHT22;8311;50.158;8.642;2023-03-01T15:27:45;20.30;38.20
16404;DHT22;8311;50.158;8.642;2023-03-01T15:30:40;20.30;38.30
16404;DHT22;8311;50.158;8.642;2023-03-01T15:33:36;20.30;38.30
16404;DHT22;8311;50.158;8.642;2023-03-01T15:36:33;20.30;38.30
16404;DHT22;8311;50.158;8.642;2023-03-01T15:39:38;20.20;38.30
16404;DHT22;8311;50.158;8.642;2023-03-01T15:42:38;20.20;38.30
16404;DHT22;8311;50.158;8.642;2023-03-01T15:45:32;20.20;38.90
16404;DHT22;8311;50.158;8.642;2023-03-01T15:48:31;20.20;38.20
16404;DHT22;8311;50.158;8.642;2023-03-01T15:51:30;20.20;38.30
16404;DHT22;8311;50.158;8.642;2023-03-01T15:54:25;20.20;38.30
16404;DHT22;8311;50.158;8.642;2023-03-01T15:57:19;20.20;38.30
16404;DHT22;8311;50.158;8.642;2023-03-01T16:00:14;20.10;38.20
16404;DHT22;8311;50.158;8.642;2023-03-01T16:03:10;20.10;38.30
16404;DHT22;8311;50.158;8.642;2023-03-01T16:06:08;20.10;38.20
16404;DHT22;8311;50.158;8.642;2023-03-01T16:09:01;20.10;38.20
16404;DHT22;8311;50.158;8.642;2023-03-01T16:11:55;20.10;38.30
16404;DHT22;8311;50.158;8.642;2023-03-01T16:14:48;20.10;38.30
16404;DHT22;8311;50.158;8.642;2023-03-01T16:17:42;20.10;38.20
16404;DHT22;8311;50.158;8.642;2023-03-01T16:20:36;20.10;38.30
16404;DHT22;8311;50.158;8.642;2023-03-01T16:23:30;20.10;38.30
16404;DHT22;8311;50.158;8.642;2023-03-01T16:26:22;20.10;38.20
16404;DHT22;8311;50.158;8.642;2023-03-01T16:29:16;20.10;38.20
16404;DHT22;8311;50.158;8.642;2023-03-01T16:32:09;20.10;38.30
16404;DHT22;8311;50.158;8.642;2023-03-01T16:35:03;20.00;38.20
16404;DHT22;8311;50.158;8.642;2023-03-01T16:37:56;20.10;38.20
16404;DHT22;8311;50.158;8.642;2023-03-01T16:40:53;20.00;38.20
16404;DHT22;8311;50.158;8.642;2023-03-01T16:43:47;20.00;38.20
16404;DHT22;8311;50.158;8.642;2023-03-01T16:46:42;20.00;38.20
16404;DHT22;8311;50.158;8.642;2023-03-01T16:49:36;20.00;38.20
16404;DHT22;8311;50.158;8.642;2023-03-01T16:52:29;20.00;38.20
16404;DHT22;8311;50.158;8.642;2023-03-01T16:55:23;20.00;38.20
16404;DHT22;8311;50.158;8.642;2023-03-01T16:58:18;20.00;38.10
16404;DHT22;8311;50.158;8.642;2023-03-01T17:01:13;20.00;38.10
16404;DHT22;8311;50.158;8.642;2023-03-01T17:04:11;20.00;38.20
16404;DHT22;8311;50.158;8.642;2023-03-01T17:07:03;20.00;38.10
16404;DHT22;8311;50.158;8.642;2023-03-01T17:09:57;19.90;38.20
16404;DHT22;8311;50.158;8.642;2023-03-01T17:12:51;20.00;38.10
16404;DHT22;8311;50.158;8.642;2023-03-01T17:15:49;19.90;38.00
16404;DHT22;8311;50.158;8.642;2023-03-01T17:18:43;19.90;38.10
16404;DHT22;8311;50.158;8.642;2023-03-01T17:21:37;19.90;38.10
16404;DHT22;8311;50.158;8.642;2023-03-01T17:24:32;19.90;38.10
16404;DHT22;8311;50.158;8.642;2023-03-01T17:27:29;19.90;37.90
16404;DHT22;8311;50.158;8.642;2023-03-01T17:30:27;20.00;37.50
16404;DHT22;8311;50.158;8.642;2023-03-01T17:33:21;19.90;36.30
16404;DHT22;8311;50.158;8.642;2023-03-01T17:36:15;19.80;37.00
16404;DHT22;8311;50.158;8.642;2023-03-01T17:39:08;19.80;37.30
16404;DHT22;8311;50.158;8.642;2023-03-01T17:42:03;19.70;37.60
16404;DHT22;8311;50.158;8.642;2023-03-01T17:44:57;19.70;37.80
16404;DHT22;8311;50.158;8.642;2023-03-01T17:47:51;19.70;36.30
16404;DHT22;8311;50.158;8.642;2023-03-01T17:50:46;19.80;35.50
16404;DHT22;8311;50.158;8.642;2023-03-01T17:53:39;19.70;35.90
16404;DHT22;8311;50.158;8.642;2023-03-01T17:56:34;19.80;35.90
16404;DHT22;8311;50.158;8.642;2023-03-01T17:59:29;19.80;36.00
16404;DHT22;8311;50.158;8.642;2023-03-01T18:02:25;19.80;36.00
16404;DHT22;8311;50.158;8.642;2023-03-01T18:05:17;19.80;36.10
16404;DHT22;8311;50.158;8.642;2023-03-01T18:08:12;19.80;36.10
16404;DHT22;8311;50.158;8.642;2023-03-01T18:11:09;19.80;36.20
16404;DHT22;8311;50.158;8.642;2023-03-01T18:14:02;19.80;36.20
16404;DHT22;8311;50.158;8.642;2023-03-01T18:16:56;19.80;36.30
16404;DHT22;8311;50.158;8.642;2023-03-01T18:19:49;19.80;37.00
16404;DHT22;8311;50.158;8.642;2023-03-01T18:22:42;19.80;36.30
16404;DHT22;8311;50.158;8.642;2023-03-01T18:25:39;19.80;36.40
16404;DHT22;8311;50.158;8.642;2023-03-01T18:28:33;19.80;36.50
16404;DHT22;8311;50.158;8.642;2023-03-01T18:31:27;19.80;36.50
16404;DHT22;8311;50.158;8.642;2023-03-01T18:34:24;19.80;36.50
16404;DHT22;8311;50.158;8.642;2023-03-01T18:37:20;19.80;36.60
16404;DHT22;8311;50.158;8.642;2023-03-01T18:40:14;19.80;36.60
16404;DHT22;8311;50.158;8.642;2023-03-01T18:43:09;19.80;36.70
16404;DHT22;8311;50.158;8.642;2023-03-01T18:46:03;19.80;36.70
16404;DHT22;8311;50.158;8.642;2023-03-01T18:48:57;19.80;36.60
16404;DHT22;8311;50.158;8.642;2023-03-01T18:51:51;19.80;36.70
16404;DHT22;8311;50.158;8.642;2023-03-01T18:54:45;19.70;36.60
16404;DHT22;8311;50.158;8.642;2023-03-01T18:57:42;19.70;36.70